Time;durP1;ratioP1;P1;durP2;ratioP2;P2;SDS_P1;SDS_P2;PMS_P1;PMS_P2;Temp;Humidity;BMP_temperature;BMP_pressure;BME280_temperature;BME280_humidity;BME280_pressure;Samples;Min_cycle;Max_cycle;Signal;HPM_P1;HPM_P2
2020/12/02 00:02:07;;;;;;;24.15;10.80;;;10.00;77.80;;;;;;5094911;28;20036;-68
2020/12/02 00:04:33;;;;;;;25.52;10.95;;;10.00;77.90;;;;;;5094957;28;20049;-68
2020/12/02 00:07:00;;;;;;;30.48;13.43;;;10.10;77.60;;;;;;5094372;28;20032;-67
2020/12/02 00:09:27;;;;;;;26.17;12.20;;;10.10;77.50;;;;;;5095047;28;20066;-67
2020/12/02 00:11:53;;;;;;;27.92;11.63;;;10.00;77.40;;;;;;5094977;28;20028;-68
2020/12/02 00:14:24;;;;;;;25.55;11.98;;;10.00;77.40;;;;;;5093974;28;20028;-68
2020/12/02 00:16:50;;;;;;;31.80;12.57;;;10.00;77.40;;;;;;5094730;28;20044;-68
2020/12/02 00:19:17;;;;;;;30.45;12.15;;;10.00;77.40;;;;;;5094709;28;20055;-68
2020/12/02 00:21:58;;;;;;;24.63;12.10;;;9.90;77.40;;;;;;5094089;28;20088;-68
2020/12/02 00:24:23;;;;;;;31.00;11.65;;;9.90;77.60;;;;;;5094649;28;20028;-68
2020/12/02 00:26:49;;;;;;;23.30;11.60;;;9.90;77.50;;;;;;5094485;28;20152;-68
2020/12/02 00:29:15;;;;;;;24.27;11.35;;;9.90;77.50;;;;;;5093758;28;20047;-68
2020/12/02 00:31:40;;;;;;;29.65;12.38;;;9.90;77.40;;;;;;5094650;28;20028;-68
2020/12/02 00:34:09;;;;;;;25.60;12.48;;;9.90;77.50;;;;;;5094626;28;20020;-67
2020/12/02 00:36:34;;;;;;;24.52;11.02;;;9.90;77.40;;;;;;5093910;28;20028;-68
2020/12/02 00:39:00;;;;;;;30.70;13.25;;;9.90;77.40;;;;;;5094218;28;20387;-67
2020/12/02 00:41:25;;;;;;;28.92;12.02;;;9.80;77.30;;;;;;5093465;28;20122;-67
2020/12/02 00:43:51;;;;;;;34.92;13.48;;;9.90;77.30;;;;;;5093297;28;20028;-68
2020/12/02 00:46:17;;;;;;;28.27;13.45;;;9.90;77.30;;;;;;5094638;28;20024;-67
2020/12/02 00:48:49;;;;;;;27.50;11.90;;;9.90;77.20;;;;;;5092894;28;20132;-68
2020/12/02 00:51:15;;;;;;;33.13;14.30;;;9.90;77.20;;;;;;5094403;28;20054;-67
2020/12/02 00:53:41;;;;;;;34.83;13.80;;;9.90;77.10;;;;;;5094080;28;20024;-67
2020/12/02 00:56:10;;;;;;;29.60;13.32;;;9.90;77.10;;;;;;5093284;28;20387;-68
2020/12/02 00:59:04;;;;;;;30.08;13.88;;;9.90;77.00;;;;;;5092954;28;20032;-67
2020/12/02 01:01:53;;;;;;;35.63;13.98;;;9.90;77.10;;;;;;5093810;28;20414;-68
2020/12/02 01:04:20;;;;;;;34.28;14.38;;;9.90;77.10;;;;;;5093139;28;20114;-68
2020/12/02 01:06:51;;;;;;;31.50;13.50;;;9.90;77.00;;;;;;5094028;28;20032;-68
2020/12/02 01:09:17;;;;;;;36.05;13.20;;;9.90;77.10;;;;;;5093955;28;20115;-67
2020/12/02 01:11:45;;;;;;;35.75;14.50;;;9.80;77.10;;;;;;5093254;28;20111;-67
2020/12/02 01:14:16;;;;;;;24.52;10.85;;;9.90;77.30;;;;;;5093821;28;20046;-67
2020/12/02 01:16:47;;;;;;;27.02;11.23;;;9.80;77.30;;;;;;5093799;28;20517;-67
2020/12/02 01:19:17;;;;;;;33.83;14.65;;;9.90;77.40;;;;;;5092843;28;20044;-67
2020/12/02 01:21:55;;;;;;;36.63;14.50;;;9.80;77.30;;;;;;5093486;28;20127;-67
2020/12/02 01:24:28;;;;;;;40.28;16.95;;;9.80;77.30;;;;;;5093111;28;20035;-67
2020/12/02 01:27:00;;;;;;;33.03;15.55;;;9.90;77.20;;;;;;5093576;28;20036;-67
2020/12/02 01:29:26;;;;;;;33.58;14.43;;;9.90;77.20;;;;;;5093653;28;20035;-67
2020/12/02 01:31:57;;;;;;;34.30;15.20;;;9.80;77.20;;;;;;5092778;28;20039;-67
2020/12/02 01:34:24;;;;;;;35.70;15.57;;;9.80;77.30;;;;;;5093770;28;20028;-67
2020/12/02 01:37:05;;;;;;;31.75;14.85;;;9.80;77.30;;;;;;5093614;28;20051;-67
2020/12/02 01:39:35;;;;;;;36.75;14.95;;;9.80;77.40;;;;;;5092789;28;20056;-68
2020/12/02 01:42:05;;;;;;;36.35;15.88;;;9.80;77.40;;;;;;5093545;28;20093;-67
2020/12/02 01:44:31;;;;;;;33.47;15.05;;;9.80;77.40;;;;;;5093377;28;20028;-67
2020/12/02 01:47:07;;;;;;;36.22;14.63;;;9.80;77.40;;;;;;5092899;28;20173;-67
2020/12/02 01:49:41;;;;;;;36.15;15.07;;;9.80;77.40;;;;;;5093453;28;20504;-67
2020/12/02 01:52:25;;;;;;;32.97;14.65;;;9.80;77.40;;;;;;5093205;28;20032;-68
2020/12/02 01:54:57;;;;;;;36.28;16.65;;;9.70;77.30;;;;;;5097161;28;20107;-67
2020/12/02 01:57:27;;;;;;;35.63;16.00;;;9.80;77.30;;;;;;5097672;28;20032;-67
2020/12/02 02:00:05;;;;;;;34.83;15.07;;;9.70;77.30;;;;;;5096805;28;20031;-67
2020/12/02 02:02:37;;;;;;;34.20;14.60;;;9.70;77.40;;;;;;5097538;28;20044;-67
2020/12/02 02:05:34;;;;;;;33.75;14.18;;;9.70;77.40;;;;;;5097141;28;20031;-67
2020/12/02 02:08:00;;;;;;;30.75;12.38;;;9.70;77.60;;;;;;5096706;28;20055;-68
2020/12/02 02:10:31;;;;;;;34.08;13.63;;;9.70;77.60;;;;;;5097307;28;20086;-68
2020/12/02 02:13:28;;;;;;;32.47;13.93;;;9.70;77.60;;;;;;5097338;28;20031;-68
2020/12/02 02:16:15;;;;;;;28.83;12.30;;;9.70;77.60;;;;;;5097300;28;20028;-67
2020/12/02 02:18:41;;;;;;;25.50;11.55;;;9.70;77.40;;;;;;5096594;28;20042;-67
2020/12/02 02:21:12;;;;;;;28.50;11.40;;;9.70;77.30;;;;;;5096264;28;20039;-68
2020/12/02 02:23:38;;;;;;;26.80;12.10;;;9.70;77.40;;;;;;5097006;28;20024;-68
2020/12/02 02:26:13;;;;;;;36.70;13.73;;;9.70;77.30;;;;;;5097105;28;20040;-68
2020/12/02 02:28:47;;;;;;;25.23;10.50;;;9.70;77.20;;;;;;5096182;28;20058;-67
2020/12/02 02:31:17;;;;;;;31.98;13.77;;;9.70;77.20;;;;;;5097041;28;20023;-68
2020/12/02 02:33:45;;;;;;;33.78;13.10;;;9.80;77.30;;;;;;5096890;28;20016;-67
2020/12/02 02:36:13;;;;;;;21.52;9.35;;;9.80;77.30;;;;;;5095880;28;20529;-68
2020/12/02 02:38:39;;;;;;;27.98;12.10;;;9.70;77.30;;;;;;5096610;28;20028;-67
2020/12/02 02:41:07;;;;;;;35.83;14.77;;;9.80;77.30;;;;;;5096786;28;20121;-67
2020/12/02 02:43:33;;;;;;;34.83;13.65;;;9.80;77.10;;;;;;5095720;28;20032;-67
2020/12/02 02:45:58;;;;;;;36.65;13.63;;;9.80;77.20;;;;;;5096424;28;20442;-67
2020/12/02 02:48:24;;;;;;;35.20;14.93;;;9.80;77.10;;;;;;5095932;28;20024;-67
2020/12/02 02:50:50;;;;;;;33.63;14.32;;;9.80;76.90;;;;;;5096541;28;20528;-67
2020/12/02 02:53:24;;;;;;;34.38;15.23;;;9.80;76.80;;;;;;5096163;28;20051;-67
2020/12/02 02:55:50;;;;;;;31.75;13.25;;;9.90;76.70;;;;;;5095796;28;20115;-67
2020/12/02 02:58:17;;;;;;;34.53;13.82;;;9.80;76.60;;;;;;5096404;28;20074;-68
2020/12/02 03:00:43;;;;;;;31.23;13.57;;;9.80;76.50;;;;;;5096291;28;20040;-67
2020/12/02 03:03:11;;;;;;;32.42;13.57;;;9.90;76.40;;;;;;5095684;28;20043;-68
2020/12/02 03:05:37;;;;;;;41.80;14.23;;;9.80;76.40;;;;;;5094963;28;20028;-67
2020/12/02 03:08:06;;;;;;;33.60;14.90;;;9.80;76.30;;;;;;5096208;28;20360;-67
2020/12/02 03:10:35;;;;;;;29.75;13.07;;;9.90;76.40;;;;;;5095470;28;20121;-68
2020/12/02 03:13:13;;;;;;;33.00;13.38;;;9.90;76.30;;;;;;5096166;28;20028;-67
2020/12/02 03:15:39;;;;;;;29.30;13.60;;;9.90;76.30;;;;;;5095931;28;20488;-67
2020/12/02 03:18:05;;;;;;;34.35;14.32;;;9.90;76.20;;;;;;5095164;28;20039;-66
2020/12/02 03:20:35;;;;;;;31.00;12.77;;;9.90;76.20;;;;;;5095486;28;20044;-68
2020/12/02 03:23:01;;;;;;;30.80;12.95;;;9.90;76.20;;;;;;5095999;28;20119;-67
2020/12/02 03:25:32;;;;;;;36.05;13.00;;;9.90;76.20;;;;;;5095221;28;20166;-67
2020/12/02 03:27:59;;;;;;;39.75;14.95;;;9.90;76.10;;;;;;5095921;28;20035;-67
2020/12/02 03:30:26;;;;;;;33.00;13.90;;;9.90;76.60;;;;;;5095792;28;20023;-67
2020/12/02 03:32:52;;;;;;;35.72;15.13;;;9.90;75.90;;;;;;5094430;28;20036;-67
2020/12/02 03:35:18;;;;;;;32.35;14.48;;;9.90;75.90;;;;;;5094882;28;20035;-67
2020/12/02 03:37:43;;;;;;;35.38;13.57;;;10.00;75.80;;;;;;5095047;28;20028;-67
2020/12/02 03:40:10;;;;;;;42.22;15.57;;;10.00;75.80;;;;;;5095680;28;20024;-67
2020/12/02 03:42:36;;;;;;;32.35;14.23;;;9.90;75.70;;;;;;5095410;28;20071;-67
2020/12/02 03:45:05;;;;;;;32.15;14.18;;;9.90;75.60;;;;;;5094674;28;20035;-67
2020/12/02 03:47:30;;;;;;;36.13;15.95;;;10.00;75.70;;;;;;5095266;28;20491;-67
2020/12/02 03:49:56;;;;;;;36.42;13.43;;;10.00;75.60;;;;;;5095230;28;20031;-67
2020/12/02 03:52:22;;;;;;;29.88;13.98;;;10.00;75.60;;;;;;5094507;28;20040;-67
2020/12/02 03:54:47;;;;;;;37.80;15.15;;;9.90;75.50;;;;;;5095428;28;20111;-67
2020/12/02 03:57:13;;;;;;;37.17;13.90;;;10.00;75.50;;;;;;5095318;28;20028;-67
2020/12/02 03:59:39;;;;;;;31.70;12.32;;;10.00;75.50;;;;;;5094310;28;20464;-67
2020/12/02 04:02:04;;;;;;;35.72;14.65;;;9.90;75.40;;;;;;5094877;28;20093;-67
2020/12/02 04:04:31;;;;;;;32.53;13.30;;;10.00;75.40;;;;;;5095205;28;20024;-67
2020/12/02 04:06:57;;;;;;;31.98;14.40;;;10.00;75.40;;;;;;5094271;28;20498;-67
2020/12/02 04:09:23;;;;;;;34.20;15.35;;;10.00;75.30;;;;;;5095153;28;20020;-67
2020/12/02 04:11:48;;;;;;;33.55;15.05;;;10.00;75.30;;;;;;5095071;28;20467;-67
2020/12/02 04:14:17;;;;;;;35.65;14.35;;;10.00;75.20;;;;;;5094135;28;20024;-67
2020/12/02 04:16:42;;;;;;;33.20;14.35;;;10.00;75.20;;;;;;5094617;28;20035;-67
2020/12/02 04:19:08;;;;;;;35.08;13.23;;;10.00;75.20;;;;;;5094751;28;20040;-67
2020/12/02 04:21:33;;;;;;;38.35;14.85;;;10.00;75.30;;;;;;5093911;28;20043;-67
2020/12/02 04:23:59;;;;;;;33.65;14.98;;;10.00;75.20;;;;;;5094862;28;20028;-67
2020/12/02 04:26:28;;;;;;;33.55;14.85;;;10.00;75.20;;;;;;5094649;28;20164;-67
2020/12/02 04:28:54;;;;;;;30.00;14.50;;;10.00;75.20;;;;;;5093699;28;20074;-67
2020/12/02 04:31:19;;;;;;;36.03;15.30;;;10.00;75.20;;;;;;5094676;28;20032;-67
2020/12/02 04:33:45;;;;;;;32.05;14.57;;;10.00;75.10;;;;;;5093242;28;20028;-67
2020/12/02 04:36:11;;;;;;;34.08;15.02;;;9.90;75.00;;;;;;5093874;28;20028;-67
2020/12/02 04:38:37;;;;;;;39.83;15.02;;;9.90;75.00;;;;;;5094369;28;20024;-67
2020/12/02 04:41:06;;;;;;;32.85;13.25;;;10.00;75.00;;;;;;5093586;28;20082;-67
2020/12/02 04:43:36;;;;;;;38.38;16.00;;;9.90;75.00;;;;;;5094378;28;20032;-67
2020/12/02 04:46:08;;;;;;;36.97;14.02;;;9.90;75.00;;;;;;5094195;28;20506;-67
2020/12/02 04:48:34;;;;;;;31.58;15.02;;;10.00;75.00;;;;;;5093635;28;20108;-67
2020/12/02 04:51:06;;;;;;;27.55;13.60;;;9.90;74.90;;;;;;5094231;28;20035;-67
2020/12/02 04:53:37;;;;;;;30.63;12.75;;;9.90;74.90;;;;;;5094086;28;20459;-67
2020/12/02 04:56:03;;;;;;;33.30;14.70;;;9.90;75.00;;;;;;5093401;28;20024;-67
2020/12/02 04:58:35;;;;;;;30.92;12.85;;;9.90;75.00;;;;;;5094221;28;20028;-67
2020/12/02 05:01:17;;;;;;;37.38;14.70;;;9.90;75.00;;;;;;5093907;28;20048;-67
2020/12/02 05:03:57;;;;;;;37.10;15.70;;;9.90;74.90;;;;;;5093410;28;20051;-67
2020/12/02 05:06:40;;;;;;;39.65;15.95;;;9.90;74.90;;;;;;5093838;28;20031;-67
2020/12/02 05:09:29;;;;;;;40.67;16.50;;;9.90;74.90;;;;;;5093265;28;20036;-67
2020/12/02 05:12:00;;;;;;;41.45;17.67;;;9.90;74.90;;;;;;5093556;28;20085;-67
2020/12/02 05:14:41;;;;;;;33.80;14.05;;;9.90;74.80;;;;;;5093819;28;20365;-67
2020/12/02 05:17:29;;;;;;;36.45;14.38;;;9.90;74.80;;;;;;5093063;28;20028;-67
2020/12/02 05:20:15;;;;;;;34.50;14.30;;;9.90;74.90;;;;;;5093536;28;20458;-67
2020/12/02 05:22:44;;;;;;;37.70;13.65;;;9.90;74.90;;;;;;5093843;28;20472;-67
2020/12/02 05:25:17;;;;;;;31.25;13.25;;;9.90;74.90;;;;;;5092779;28;20081;-67
2020/12/02 05:27:46;;;;;;;31.55;13.20;;;9.90;74.90;;;;;;5093335;28;20032;-67
2020/12/02 05:30:29;;;;;;;34.05;14.60;;;9.90;75.00;;;;;;5093289;28;20088;-67
2020/12/02 05:33:24;;;;;;;32.22;13.30;;;9.80;74.90;;;;;;5093782;28;20032;-67
2020/12/02 05:36:09;;;;;;;27.20;12.20;;;9.90;75.00;;;;;;5088855;28;20040;-67
2020/12/02 05:38:39;;;;;;;32.40;13.77;;;9.90;75.00;;;;;;5092786;28;20028;-67
2020/12/02 05:41:12;;;;;;;33.97;14.75;;;9.90;75.00;;;;;;5093489;28;20093;-67
2020/12/02 05:43:49;;;;;;;31.33;12.95;;;9.80;74.90;;;;;;5093509;28;20024;-67
2020/12/02 05:46:44;;;;;;;35.53;14.75;;;9.90;75.00;;;;;;5092738;28;20032;-67
2020/12/02 05:49:12;;;;;;;33.20;13.85;;;9.80;75.00;;;;;;5093566;28;20043;-68
2020/12/02 05:51:41;;;;;;;32.80;13.57;;;9.90;75.00;;;;;;5092693;28;20028;-67
2020/12/02 05:54:16;;;;;;;33.80;15.00;;;9.90;75.00;;;;;;5093531;28;20036;-67
2020/12/02 05:56:46;;;;;;;30.20;13.50;;;9.90;75.00;;;;;;5093161;28;20036;-67
2020/12/02 05:59:12;;;;;;;33.88;14.15;;;9.90;75.00;;;;;;5092794;28;20028;-67
2020/12/02 06:01:38;;;;;;;42.85;14.30;;;9.80;75.00;;;;;;5093250;28;20101;-67
2020/12/02 06:04:09;;;;;;;30.45;14.30;;;9.90;75.00;;;;;;5093331;28;20039;-67
2020/12/02 06:06:35;;;;;;;33.67;13.88;;;9.90;75.00;;;;;;5092612;28;20078;-67
2020/12/02 06:09:01;;;;;;;27.52;13.48;;;9.90;75.00;;;;;;5092979;28;20032;-69
2020/12/02 06:11:36;;;;;;;34.70;12.00;;;9.90;75.00;;;;;;5092970;28;20122;-66
2020/12/02 06:14:08;;;;;;;33.53;14.18;;;9.90;75.00;;;;;;5092515;28;20032;-67
2020/12/02 06:16:38;;;;;;;29.02;13.43;;;9.90;75.00;;;;;;5093344;28;20067;-67
2020/12/02 06:19:10;;;;;;;28.05;12.40;;;9.80;75.00;;;;;;5092903;28;20033;-67
2020/12/02 06:21:52;;;;;;;26.63;11.80;;;9.90;75.00;;;;;;5092241;28;20078;-66
2020/12/02 06:24:39;;;;;;;27.70;12.60;;;9.90;75.10;;;;;;5093184;28;20367;-67
2020/12/02 06:27:14;;;;;;;27.00;13.00;;;9.90;75.00;;;;;;5092255;28;20034;-67
2020/12/02 06:29:40;;;;;;;30.80;12.18;;;9.90;75.00;;;;;;5089922;28;20028;-67
2020/12/02 06:32:21;;;;;;;30.95;13.10;;;9.90;75.00;;;;;;5091748;28;20028;-67
2020/12/02 06:34:49;;;;;;;27.52;11.60;;;9.90;75.10;;;;;;5090739;28;20467;-66
2020/12/02 06:37:21;;;;;;;31.45;12.07;;;9.80;75.10;;;;;;5091648;28;20020;-66
2020/12/02 06:39:57;;;;;;;34.42;13.35;;;9.80;75.00;;;;;;5091845;28;20023;-66
2020/12/02 06:42:35;;;;;;;31.98;11.93;;;9.90;75.10;;;;;;5094196;28;20072;-67
2020/12/02 06:45:16;;;;;;;32.55;13.27;;;9.90;75.20;;;;;;5076402;28;20119;-67
2020/12/02 06:47:50;;;;;;;31.73;13.20;;;9.90;75.20;;;;;;5085352;28;20107;-68
2020/12/02 06:50:26;;;;;;;36.38;13.90;;;9.80;75.20;;;;;;5092947;28;20463;-68
2020/12/02 06:52:56;;;;;;;33.88;12.88;;;9.80;75.20;;;;;;5092948;28;20024;-68
2020/12/02 06:55:28;;;;;;;37.20;14.55;;;9.80;75.20;;;;;;5095681;28;20035;-68
2020/12/02 06:57:57;;;;;;;38.38;14.68;;;9.80;75.20;;;;;;5094292;28;20495;-68
2020/12/02 07:00:27;;;;;;;36.85;14.75;;;9.80;75.20;;;;;;5096222;28;20106;-68
2020/12/02 07:02:58;;;;;;;34.30;13.63;;;9.80;75.20;;;;;;5095500;28;20355;-72
2020/12/02 07:05:41;;;;;;;27.38;11.32;;;9.80;75.20;;;;;;5090745;28;20119;-66
2020/12/02 07:08:35;;;;;;;28.40;12.48;;;9.80;75.20;;;;;;5092325;28;20032;-68
2020/12/02 07:11:12;;;;;;;39.40;16.33;;;9.80;75.30;;;;;;5093326;28;20072;-67
2020/12/02 07:13:44;;;;;;;36.47;14.52;;;9.80;75.20;;;;;;5093708;28;20047;-67
2020/12/02 07:16:14;;;;;;;36.70;14.82;;;9.80;75.20;;;;;;5090496;28;20044;-74
2020/12/02 07:18:39;;;;;;;40.53;14.10;;;9.70;75.30;;;;;;5094395;28;20044;-67
2020/12/02 07:21:42;;;;;;;35.92;16.08;;;9.80;75.40;;;;;;5093983;28;20526;-68
2020/12/02 07:24:20;;;;;;;41.08;16.30;;;9.70;75.40;;;;;;5090483;28;20039;-68
2020/12/02 07:26:47;;;;;;;43.28;14.50;;;9.70;75.30;;;;;;5092126;28;20508;-68
2020/12/02 07:29:17;;;;;;;42.55;17.30;;;9.70;75.40;;;;;;5092904;28;20452;-68
2020/12/02 07:31:43;;;;;;;48.72;16.55;;;9.70;75.40;;;;;;5091088;28;20032;-68
2020/12/02 07:34:22;;;;;;;41.13;16.30;;;9.70;75.60;;;;;;5094343;28;20026;-68
2020/12/02 07:36:48;;;;;;;31.80;12.32;;;9.70;75.80;;;;;;5094523;28;20061;-68
2020/12/02 07:39:21;;;;;;;39.75;15.70;;;9.70;75.90;;;;;;5095430;28;20180;-68
2020/12/02 07:42:16;;;;;;;39.35;14.77;;;9.70;75.80;;;;;;5094647;28;20081;-68
2020/12/02 07:44:49;;;;;;;38.50;12.77;;;9.70;75.90;;;;;;5092954;28;20475;-69
2020/12/02 07:47:16;;;;;;;34.55;12.85;;;9.70;75.90;;;;;;5094859;28;20095;-68
2020/12/02 07:50:01;;;;;;;32.30;14.00;;;9.70;76.00;;;;;;5094593;28;20036;-68
2020/12/02 07:52:33;;;;;;;39.08;15.43;;;9.70;75.90;;;;;;5092620;28;20024;-68
2020/12/02 07:54:59;;;;;;;33.05;12.10;;;9.60;75.80;;;;;;5095114;28;20429;-70
2020/12/02 07:57:27;;;;;;;29.95;12.68;;;9.60;75.80;;;;;;5094981;28;20028;-69
2020/12/02 08:00:33;;;;;;;35.17;13.85;;;9.70;75.80;;;;;;5094101;28;20036;-68
2020/12/02 08:02:58;;;;;;;36.22;14.10;;;9.60;75.70;;;;;;5094810;28;20139;-69
2020/12/02 08:05:43;;;;;;;35.40;12.85;;;9.70;75.80;;;;;;5092643;28;20074;-68
2020/12/02 08:08:08;;;;;;;42.28;14.85;;;9.60;75.80;;;;;;5095005;28;20031;-68
2020/12/02 08:10:36;;;;;;;32.53;13.48;;;9.60;75.80;;;;;;5094951;28;20375;-68
2020/12/02 08:13:14;;;;;;;35.70;14.23;;;9.60;75.80;;;;;;5093926;28;20061;-68
2020/12/02 08:15:47;;;;;;;38.97;16.45;;;9.60;75.80;;;;;;5093380;28;20032;-69
2020/12/02 08:18:18;;;;;;;36.28;14.10;;;9.60;75.70;;;;;;5094801;28;20031;-69
2020/12/02 08:20:45;;;;;;;34.40;14.02;;;9.60;75.70;;;;;;5093660;28;20063;-69
2020/12/02 08:23:21;;;;;;;41.53;15.88;;;9.60;75.70;;;;;;5094647;28;20040;-69
2020/12/02 08:26:18;;;;;;;40.22;15.18;;;9.60;75.70;;;;;;5094628;28;20388;-69
2020/12/02 08:28:45;;;;;;;39.60;15.18;;;9.60;75.80;;;;;;5094360;28;20035;-70
2020/12/02 08:31:22;;;;;;;36.70;14.93;;;9.60;75.80;;;;;;5094412;28;20051;-69
2020/12/02 08:34:18;;;;;;;44.10;17.33;;;9.60;75.80;;;;;;5093868;28;20028;-69
2020/12/02 08:36:49;;;;;;;42.58;17.58;;;9.60;75.80;;;;;;5073927;28;20444;-69
2020/12/02 08:39:29;;;;;;;40.78;17.05;;;9.50;75.50;;;;;;5074010;28;20547;-69
2020/12/02 08:41:55;;;;;;;43.00;16.63;;;9.50;75.60;;;;;;5071954;28;20055;-69
2020/12/02 08:44:20;;;;;;;37.80;15.35;;;9.50;75.70;;;;;;5071934;28;20040;-69
2020/12/02 08:47:17;;;;;;;45.78;18.58;;;9.60;75.90;;;;;;5072235;28;20028;-69
2020/12/02 08:49:43;;;;;;;44.00;17.50;;;9.50;75.80;;;;;;5069797;28;20041;-69
2020/12/02 08:52:09;;;;;;;42.38;16.08;;;9.50;75.80;;;;;;5072114;28;20420;-69
2020/12/02 08:54:37;;;;;;;43.30;16.27;;;9.50;75.80;;;;;;5071335;28;20032;-69
2020/12/02 08:57:07;;;;;;;43.55;17.83;;;9.50;75.90;;;;;;5072598;28;20123;-69
2020/12/02 08:59:36;;;;;;;46.17;17.35;;;9.50;75.90;;;;;;5073669;28;20469;-69
2020/12/02 09:02:04;;;;;;;49.83;19.92;;;9.50;75.90;;;;;;5072537;28;20067;-69
2020/12/02 09:04:29;;;;;;;49.05;18.75;;;9.50;75.90;;;;;;5073194;28;20029;-69
2020/12/02 09:06:55;;;;;;;51.45;20.73;;;9.50;75.90;;;;;;5073874;28;20042;-69
2020/12/02 09:09:21;;;;;;;51.38;18.73;;;9.50;75.90;;;;;;5072923;28;20032;-69
2020/12/02 09:11:46;;;;;;;55.13;19.65;;;9.50;76.00;;;;;;5073692;28;20033;-69
2020/12/02 09:14:12;;;;;;;47.38;17.85;;;9.50;76.00;;;;;;5073491;28;20029;-69
2020/12/02 09:16:40;;;;;;;53.42;18.80;;;9.40;75.90;;;;;;5073029;28;20078;-69
2020/12/02 09:19:09;;;;;;;60.75;21.73;;;9.50;76.00;;;;;;5073411;28;20036;-69
2020/12/02 09:21:34;;;;;;;67.93;23.45;;;9.40;76.00;;;;;;5073597;28;20080;-69
2020/12/02 09:24:01;;;;;;;58.22;19.77;;;9.40;76.00;;;;;;5072761;28;20143;-69
2020/12/02 09:26:29;;;;;;;52.97;17.05;;;9.40;76.10;;;;;;5073448;28;20059;-69
2020/12/02 09:28:57;;;;;;;52.95;18.35;;;9.40;76.10;;;;;;5073382;28;20108;-69
2020/12/02 09:31:23;;;;;;;59.88;20.88;;;9.50;76.30;;;;;;5072855;28;20492;-69
2020/12/02 09:33:50;;;;;;;67.32;23.02;;;9.50;76.40;;;;;;5073200;28;20032;-69
2020/12/02 09:36:18;;;;;;;55.67;19.67;;;9.50;76.40;;;;;;5073321;28;20032;-69
2020/12/02 09:38:46;;;;;;;66.85;24.10;;;9.40;76.30;;;;;;5072865;28;20036;-69
2020/12/02 09:41:31;;;;;;;71.20;22.50;;;9.40;76.30;;;;;;5073028;28;20128;-69
2020/12/02 09:44:21;;;;;;;70.32;23.75;;;9.40;76.20;;;;;;5072586;28;20029;-69
2020/12/02 09:47:05;;;;;;;69.78;24.75;;;9.40;76.10;;;;;;5073188;28;20377;-69
2020/12/02 09:49:31;;;;;;;72.80;24.27;;;9.50;76.30;;;;;;5073192;28;20085;-69
2020/12/02 09:52:09;;;;;;;71.30;22.85;;;9.40;76.20;;;;;;5072356;28;20032;-69
2020/12/02 09:54:40;;;;;;;70.65;25.88;;;9.40;76.30;;;;;;5073027;28;20036;-69
2020/12/02 09:57:15;;;;;;;65.78;22.73;;;9.40;76.30;;;;;;5073282;28;20111;-69
2020/12/02 09:59:41;;;;;;;67.50;23.08;;;9.40;76.40;;;;;;5072424;28;20075;-69
2020/12/02 10:02:35;;;;;;;63.13;21.27;;;9.40;76.50;;;;;;5072896;28;20045;-69
2020/12/02 10:05:25;;;;;;;58.33;21.08;;;9.50;76.70;;;;;;5072200;28;20154;-69
2020/12/02 10:08:22;;;;;;;79.57;23.95;;;9.40;76.60;;;;;;5072729;28;20056;-69
2020/12/02 10:11:09;;;;;;;69.40;21.33;;;9.40;76.70;;;;;;5053169;28;20443;-69
2020/12/02 10:13:44;;;;;;;72.55;23.35;;;9.40;76.70;;;;;;5072066;28;20024;-69
2020/12/02 10:16:33;;;;;;;71.47;22.92;;;9.40;76.80;;;;;;5076452;28;20036;-67
2020/12/02 10:19:23;;;;;;;65.55;19.75;;;9.40;76.90;;;;;;5075531;28;20044;-69
2020/12/02 10:22:01;;;;;;;55.17;19.80;;;9.40;77.00;;;;;;5076041;28;20086;-69
2020/12/02 10:24:56;;;;;;;71.25;23.95;;;9.40;77.00;;;;;;5076632;28;20036;-69
2020/12/02 10:27:46;;;;;;;64.60;19.70;;;9.30;77.10;;;;;;5072726;28;20037;-69
2020/12/02 10:30:31;;;;;;;59.58;21.00;;;9.30;77.10;;;;;;5076781;28;20039;-68
2020/12/02 10:33:25;;;;;;;61.47;18.70;;;9.40;77.10;;;;;;5076334;28;20081;-71
2020/12/02 10:35:52;;;;;;;55.58;20.13;;;9.40;77.20;;;;;;5076704;28;20059;-70
2020/12/02 10:38:36;;;;;;;67.35;21.30;;;9.30;77.20;;;;;;5076506;28;20445;-77
2020/12/02 10:41:16;;;;;;;51.03;17.83;;;9.40;77.30;;;;;;5075656;28;20143;-70
2020/12/02 10:44:03;;;;;;;48.70;17.73;;;9.40;77.30;;;;;;5076558;28;20040;-70
2020/12/02 10:46:56;;;;;;;56.45;20.55;;;9.40;77.30;;;;;;5076476;28;20111;-69
2020/12/02 10:49:29;;;;;;;48.45;18.52;;;9.40;77.20;;;;;;5076167;28;20025;-70
2020/12/02 10:52:01;;;;;;;52.05;18.17;;;9.40;77.30;;;;;;5076160;28;20048;-69
2020/12/02 10:54:34;;;;;;;64.53;19.30;;;9.40;77.30;;;;;;5075375;28;20025;-69
2020/12/02 10:57:05;;;;;;;92.65;17.30;;;9.40;77.40;;;;;;5076333;28;20067;-69
2020/12/02 10:59:31;;;;;;;59.85;18.40;;;9.40;77.40;;;;;;5076262;28;20060;-70
2020/12/02 11:01:57;;;;;;;43.63;16.17;;;9.40;77.40;;;;;;5075239;28;20421;-70
2020/12/02 11:04:22;;;;;;;44.53;16.10;;;9.40;77.50;;;;;;5075901;28;20063;-70
2020/12/02 11:07:12;;;;;;;38.83;15.73;;;9.50;77.70;;;;;;5075626;28;20039;-69
2020/12/02 11:09:52;;;;;;;60.65;19.75;;;9.40;77.60;;;;;;5075426;28;20033;-69
2020/12/02 11:12:18;;;;;;;53.55;19.38;;;9.40;77.40;;;;;;5076049;28;20032;-70
2020/12/02 11:14:56;;;;;;;51.97;18.15;;;9.50;77.30;;;;;;5075217;28;20029;-69
2020/12/02 11:17:44;;;;;;;51.58;17.15;;;9.50;77.30;;;;;;5075692;28;20028;-69
2020/12/02 11:20:19;;;;;;;57.70;18.15;;;9.40;77.20;;;;;;5075666;28;20063;-69
2020/12/02 11:23:15;;;;;;;63.17;19.17;;;9.40;77.20;;;;;;5074870;28;20032;-70
2020/12/02 11:25:55;;;;;;;51.30;17.58;;;9.40;77.30;;;;;;5085895;28;20061;-77
2020/12/02 11:28:24;;;;;;;57.72;19.33;;;9.40;77.20;;;;;;5091393;28;20547;-77
2020/12/02 11:30:50;;;;;;;49.40;17.58;;;9.40;77.30;;;;;;5093502;28;20036;-77
2020/12/02 11:33:45;;;;;;;44.30;14.60;;;9.40;77.20;;;;;;5093606;28;20032;-78
2020/12/02 11:36:26;;;;;;;61.33;20.70;;;9.40;77.30;;;;;;5094050;28;20519;-78
2020/12/02 11:39:47;;;;;;;56.17;18.65;;;9.50;77.30;;;;;;5092541;28;20132;-71
2020/12/02 11:42:13;;;;;;;62.58;19.10;;;9.50;77.20;;;;;;5094231;28;20036;-67
2020/12/02 11:44:59;;;;;;;58.00;20.30;;;9.40;77.10;;;;;;5093856;28;20463;-71
2020/12/02 11:47:30;;;;;;;56.70;19.83;;;9.40;77.20;;;;;;5090955;28;20384;-70
2020/12/02 11:50:08;;;;;;;62.70;21.40;;;9.40;77.30;;;;;;5094534;28;20111;-70
2020/12/02 11:52:48;;;;;;;71.90;21.67;;;9.50;77.40;;;;;;5093384;28;20032;-72
2020/12/02 11:55:17;;;;;;;63.25;18.73;;;9.40;77.40;;;;;;5094590;28;20028;-71
2020/12/02 11:57:49;;;;;;;72.60;22.77;;;9.40;77.50;;;;;;5093257;28;20027;-70
2020/12/02 12:00:15;;;;;;;72.85;24.70;;;9.40;77.50;;;;;;5094469;28;20149;-69
2020/12/02 12:02:56;;;;;;;70.90;23.17;;;9.40;77.50;;;;;;5093846;28;20465;-67
2020/12/02 12:05:30;;;;;;;73.20;22.77;;;9.40;77.60;;;;;;5093096;28;20150;-70
2020/12/02 12:08:05;;;;;;;75.00;22.45;;;9.50;77.60;;;;;;5094032;28;20027;-70
2020/12/02 12:10:37;;;;;;;78.60;25.50;;;9.40;77.50;;;;;;5094105;28;20491;-70
2020/12/02 12:13:19;;;;;;;77.13;27.55;;;9.40;77.50;;;;;;5092439;28;20036;-70
2020/12/02 12:15:52;;;;;;;77.88;23.95;;;9.50;77.50;;;;;;5094016;28;20032;-70
2020/12/02 12:18:44;;;;;;;68.63;22.90;;;9.40;77.50;;;;;;5093527;28;20081;-70
2020/12/02 12:21:19;;;;;;;70.43;24.65;;;9.40;77.40;;;;;;5093957;28;20136;-68
2020/12/02 12:24:01;;;;;;;74.78;22.05;;;9.40;77.30;;;;;;5093672;28;20031;-68
2020/12/02 12:26:32;;;;;;;71.45;23.98;;;9.40;77.40;;;;;;5092917;28;20028;-68
2020/12/02 12:29:01;;;;;;;57.72;22.90;;;9.30;77.30;;;;;;5094195;28;20055;-68
2020/12/02 12:31:43;;;;;;;60.58;21.45;;;9.40;77.30;;;;;;5093661;28;20020;-68
2020/12/02 12:34:35;;;;;;;52.70;22.10;;;9.40;77.30;;;;;;5093198;28;20032;-68
2020/12/02 12:37:05;;;;;;;49.42;20.25;;;9.40;77.30;;;;;;5093800;28;20032;-68
2020/12/02 12:39:48;;;;;;;73.55;25.42;;;9.40;77.20;;;;;;5092769;28;20539;-68
2020/12/02 12:42:16;;;;;;;55.83;22.02;;;9.40;77.20;;;;;;5093634;28;20040;-68
2020/12/02 12:44:42;;;;;;;61.08;20.35;;;9.40;77.00;;;;;;5093343;28;20032;-68
2020/12/02 12:47:17;;;;;;;56.05;21.25;;;9.40;77.00;;;;;;5092983;28;20094;-68
2020/12/02 12:49:43;;;;;;;58.00;22.48;;;9.40;77.00;;;;;;5093388;28;20077;-68
2020/12/02 12:52:13;;;;;;;51.58;22.38;;;9.40;76.90;;;;;;5093577;28;20028;-68
2020/12/02 12:54:38;;;;;;;51.03;21.73;;;9.40;76.70;;;;;;5092877;28;20034;-68
2020/12/02 12:57:05;;;;;;;46.88;20.20;;;9.40;76.70;;;;;;5093333;28;20115;-69
2020/12/02 12:59:35;;;;;;;45.80;21.25;;;9.40;76.60;;;;;;5092999;28;20069;-69
2020/12/02 13:02:00;;;;;;;56.63;20.85;;;9.40;76.50;;;;;;5092712;28;20040;-68
2020/12/02 13:04:26;;;;;;;46.22;19.73;;;9.40;76.40;;;;;;5093058;28;20396;-68
2020/12/02 13:07:32;;;;;;;48.08;17.60;;;9.40;76.40;;;;;;5093394;28;20063;-68